Time;durP1;ratioP1;P1;durP2;ratioP2;P2;SDS_P1;SDS_P2;PMS_P1;PMS_P2;Temp;Humidity;BMP_temperature;BMP_pressure;BME280_temperature;BME280_humidity;BME280_pressure;Samples;Min_cycle;Max_cycle;Signal;HPM_P1;HPM_P2
2022/03/18 00:00:00;;;;;;;9.25;2.85;;;;;;;7.13;79.17;100224.72;5071925;28;20036;-65
2022/03/18 00:02:27;;;;;;;5.55;2.72;;;;;;;7.09;79.21;100227.22;5068113;28;20031;-65
2022/03/18 00:04:54;;;;;;;11.15;2.97;;;;;;;7.01;79.30;100227.06;5084913;28;20023;-65
2022/03/18 00:07:20;;;;;;;5.50;2.47;;;;;;;7.12;78.92;100227.28;5084526;28;20093;-65
2022/03/18 00:09:48;;;;;;;7.90;2.90;;;;;;;7.05;78.55;100221.03;5083415;28;20316;-65
2022/03/18 00:12:15;;;;;;;6.97;2.58;;;;;;;6.95;79.59;100221.72;5084692;28;20020;-65
2022/03/18 00:14:41;;;;;;;10.63;3.15;;;;;;;7.03;78.91;100224.50;5084301;28;20355;-65
2022/03/18 00:17:10;;;;;;;10.75;2.78;;;;;;;7.09;78.61;100222.84;5084631;28;20012;-65
2022/03/18 00:19:36;;;;;;;10.27;2.15;;;;;;;7.04;78.52;100224.53;5075316;28;20020;-65
2022/03/18 00:22:03;;;;;;;7.18;2.15;;;;;;;6.98;78.82;100224.41;5065097;28;20023;-65
2022/03/18 00:24:31;;;;;;;9.48;2.67;;;;;;;6.96;78.25;100220.00;5065042;28;20020;-65
2022/03/18 00:26:57;;;;;;;16.50;2.58;;;;;;;6.95;78.70;100229.56;5065199;28;20048;-65
2022/03/18 00:29:22;;;;;;;11.80;2.47;;;;;;;6.81;79.79;100220.56;5065986;28;20339;-65
2022/03/18 00:31:48;;;;;;;7.53;2.30;;;;;;;6.82;79.19;100222.31;5064926;28;20066;-65
2022/03/18 00:34:13;;;;;;;12.35;2.10;;;;;;;6.81;79.34;100231.03;5065122;28;20021;-65
2022/03/18 00:36:38;;;;;;;7.60;2.60;;;;;;;6.65;79.73;100228.94;5064840;28;20017;-65
2022/03/18 00:39:05;;;;;;;6.70;2.20;;;;;;;6.80;79.71;100223.16;5069494;28;20033;-65
2022/03/18 00:41:31;;;;;;;4.70;2.03;;;;;;;6.81;78.77;100231.03;5083899;28;20027;-65
2022/03/18 00:43:56;;;;;;;6.72;2.08;;;;;;;6.80;78.80;100239.72;5084147;28;20287;-65
2022/03/18 00:46:23;;;;;;;7.38;1.90;;;;;;;6.78;79.54;100240.53;5082408;28;20089;-65
2022/03/18 00:54:17;;;;;;;10.60;2.55;;;;;;;6.81;78.46;100241.50;5064546;28;20020;-65
2022/03/18 00:56:43;;;;;;;7.95;1.92;;;;;;;6.84;78.94;100245.91;5083511;28;20083;-65
2022/03/18 00:59:09;;;;;;;6.18;2.13;;;;;;;6.75;78.79;100225.66;5072834;28;20017;-65
2022/03/18 01:01:35;;;;;;;7.80;2.17;;;;;;;6.71;79.22;100229.09;5064365;28;20021;-65
2022/03/18 01:04:01;;;;;;;6.72;2.55;;;;;;;6.67;78.81;100232.44;5064396;28;20070;-65
2022/03/18 01:06:28;;;;;;;13.30;2.53;;;;;;;6.72;78.94;100236.94;5064256;28;20040;-65
2022/03/18 01:08:53;;;;;;;11.40;2.78;;;;;;;6.63;79.63;100235.88;5072086;28;20031;-65
2022/03/18 01:11:19;;;;;;;7.40;2.42;;;;;;;6.75;78.71;100236.13;5067555;28;20016;-65
2022/03/18 01:13:44;;;;;;;9.02;2.33;;;;;;;6.65;79.23;100237.66;5083573;28;20044;-65
2022/03/18 01:16:10;;;;;;;10.27;2.63;;;;;;;6.56;79.82;100237.44;5083445;28;20339;-65
2022/03/18 01:18:35;;;;;;;11.45;2.40;;;;;;;6.53;79.86;100236.53;5077484;28;20208;-65
2022/03/18 01:21:00;;;;;;;6.50;2.58;;;;;;;6.57;79.56;100235.72;5064667;28;20021;-65
2022/03/18 01:23:26;;;;;;;12.40;1.90;;;;;;;6.62;79.43;100234.09;5084082;28;20016;-65
2022/03/18 01:25:51;;;;;;;8.63;1.92;;;;;;;6.72;79.46;100238.69;5084015;28;20216;-65
2022/03/18 01:28:17;;;;;;;9.02;2.22;;;;;;;6.71;79.07;100229.09;5084274;28;20314;-65
2022/03/18 01:30:42;;;;;;;9.43;2.58;;;;;;;6.65;79.05;100219.34;5084260;28;20021;-65
2022/03/18 01:33:08;;;;;;;8.27;2.53;;;;;;;6.68;78.76;100223.78;5082423;28;20239;-65
2022/03/18 01:35:33;;;;;;;11.88;2.45;;;;;;;6.55;79.08;100222.63;5083427;28;20054;-65
2022/03/18 01:37:59;;;;;;;8.77;2.28;;;;;;;6.68;79.43;100230.72;5083445;28;20036;-65
2022/03/18 01:40:24;;;;;;;9.63;2.25;;;;;;;6.63;78.60;100231.53;5082845;28;20020;-65
2022/03/18 01:42:49;;;;;;;10.90;2.80;;;;;;;6.79;78.48;100232.72;5083385;28;20020;-65
2022/03/18 01:45:15;;;;;;;12.88;2.13;;;;;;;6.73;78.70;100237.81;5064333;28;20056;-65
2022/03/18 01:47:43;;;;;;;5.32;2.08;;;;;;;6.81;78.14;100238.00;5068983;28;20040;-65
2022/03/18 01:50:18;;;;;;;11.45;2.03;;;;;;;6.79;78.68;100237.06;5083290;28;20334;-65
2022/03/18 01:52:45;;;;;;;4.38;1.92;;;;;;;6.86;78.07;100242.47;5081959;28;20215;-65
2022/03/18 01:55:12;;;;;;;15.05;2.13;;;;;;;6.79;78.62;100243.19;5083154;28;20020;-65
2022/03/18 01:57:38;;;;;;;11.18;2.10;;;;;;;6.80;78.52;100247.56;5063701;28;20092;-65
2022/03/18 02:00:07;;;;;;;9.57;2.42;;;;;;;6.79;78.53;100240.56;5063755;28;20078;-65
2022/03/18 02:02:34;;;;;;;5.47;1.83;;;;;;;6.89;77.50;100245.13;5064755;28;20033;-65
2022/03/18 02:04:59;;;;;;;9.70;2.00;;;;;;;6.85;77.87;100253.78;5078492;28;20032;-65
2022/03/18 02:07:25;;;;;;;5.63;1.48;;;;;;;6.83;78.25;100247.63;5064954;28;20048;-65
2022/03/18 02:09:50;;;;;;;3.38;1.60;;;;;;;6.72;78.72;100241.31;5069026;28;20360;-65
2022/03/18 02:12:16;;;;;;;6.63;1.95;;;;;;;6.80;78.20;100244.94;5082763;28;20040;-65
2022/03/18 02:14:43;;;;;;;8.15;2.03;;;;;;;6.83;78.45;100242.41;5078382;28;20093;-65
2022/03/18 02:17:11;;;;;;;6.45;1.38;;;;;;;6.76;78.79;100247.47;5063545;28;20021;-65
2022/03/18 02:19:38;;;;;;;3.90;1.60;;;;;;;6.82;78.88;100253.72;5063565;28;20032;-65
2022/03/18 02:22:10;;;;;;;7.82;2.42;;;;;;;6.81;78.46;100245.84;5063707;28;20213;-65
2022/03/18 02:24:35;;;;;;;5.27;2.17;;;;;;;6.79;78.66;100258.00;5065726;28;20028;-65
2022/03/18 02:27:00;;;;;;;6.18;1.88;;;;;;;6.84;78.29;100262.50;5082883;28;20036;-65
2022/03/18 02:29:28;;;;;;;6.38;2.05;;;;;;;6.87;77.89;100252.09;5082660;28;20035;-65
2022/03/18 02:31:53;;;;;;;11.65;2.50;;;;;;;6.73;78.68;100248.28;5071291;28;20013;-65
2022/03/18 02:34:19;;;;;;;11.88;2.55;;;;;;;6.72;78.12;100249.16;5064538;28;20024;-65
2022/03/18 02:36:45;;;;;;;4.25;1.92;;;;;;;6.77;79.01;100250.13;5063355;28;20190;-65
2022/03/18 02:39:10;;;;;;;7.93;2.15;;;;;;;6.68;78.88;100234.25;5063385;28;20024;-65
2022/03/18 02:41:35;;;;;;;7.28;2.15;;;;;;;6.55;79.25;100243.53;5063287;28;20083;-65
2022/03/18 02:44:01;;;;;;;7.88;1.98;;;;;;;6.53;79.49;100236.53;5064404;28;20021;-65
2022/03/18 02:46:26;;;;;;;2.75;1.73;;;;;;;6.54;79.75;100248.75;5078743;28;20020;-65
2022/03/18 02:48:53;;;;;;;11.23;2.00;;;;;;;6.59;78.92;100244.50;5063278;28;20024;-65
2022/03/18 02:51:19;;;;;;;5.03;2.03;;;;;;;6.53;79.79;100249.59;5063576;28;20326;-65
2022/03/18 02:53:45;;;;;;;9.30;2.63;;;;;;;6.42;80.13;100243.22;5067966;28;20021;-65
2022/03/18 02:56:12;;;;;;;10.60;2.92;;;;;;;6.46;79.86;100247.69;5066822;28;20024;-65
2022/03/18 02:58:38;;;;;;;4.88;2.28;;;;;;;6.45;79.88;100256.38;5068141;28;20051;-65
2022/03/18 03:01:03;;;;;;;5.85;1.98;;;;;;;6.41;80.52;100251.94;5066659;28;20016;-65
2022/03/18 03:03:29;;;;;;;13.25;2.55;;;;;;;6.51;79.63;100252.19;5067347;28;20320;-65
2022/03/18 03:08:40;;;;;;;16.30;2.70;;;;;;;6.56;79.54;100255.75;5084603;28;20216;-65
2022/03/18 03:11:06;;;;;;;6.70;2.22;;;;;;;6.57;79.26;100267.13;5066673;28;20044;-65
2022/03/18 03:13:32;;;;;;;2.67;1.73;;;;;;;6.56;79.39;100254.91;5067413;28;20224;-65
2022/03/18 03:15:59;;;;;;;15.43;3.20;;;;;;;6.46;79.57;100268.63;5066450;28;20025;-65
2022/03/18 03:18:24;;;;;;;11.60;2.33;;;;;;;6.42;80.05;100267.66;5066342;28;20076;-65
2022/03/18 03:20:50;;;;;;;10.93;3.05;;;;;;;6.41;80.74;100262.38;5072507;28;20032;-65
2022/03/18 03:23:15;;;;;;;12.25;2.17;;;;;;;6.27;80.81;100269.91;5070053;28;20030;-65
2022/03/18 03:25:41;;;;;;;4.95;1.85;;;;;;;6.30;81.37;100269.13;5073621;28;20084;-65
2022/03/18 03:28:06;;;;;;;17.13;3.53;;;;;;;6.39;80.30;100261.47;5066113;28;20067;-65
2022/03/18 03:30:32;;;;;;;9.73;2.13;;;;;;;6.31;80.18;100279.63;5066119;28;20028;-65
2022/03/18 03:32:57;;;;;;;4.72;2.28;;;;;;;6.41;80.33;100278.09;5067409;28;20035;-65
2022/03/18 03:35:23;;;;;;;6.65;2.35;;;;;;;6.31;80.91;100278.72;5085512;28;20039;-65
2022/03/18 03:37:48;;;;;;;3.35;1.95;;;;;;;6.35;80.42;100283.16;5084357;28;20100;-65
2022/03/18 03:40:14;;;;;;;6.78;2.53;;;;;;;6.30;80.35;100287.44;5085193;28;20083;-65
2022/03/18 03:42:44;;;;;;;13.25;2.50;;;;;;;6.17;81.49;100286.22;5085150;28;20048;-65
2022/03/18 03:45:10;;;;;;;8.20;3.20;;;;;;;6.23;80.49;100286.38;5066076;28;20055;-65
2022/03/18 03:47:37;;;;;;;18.65;2.90;;;;;;;6.21;80.63;100282.84;5072664;28;20017;-65
2022/03/18 03:50:03;;;;;;;6.03;2.42;;;;;;;6.28;80.63;100289.09;5075356;28;20017;-65
2022/03/18 03:52:29;;;;;;;10.05;2.42;;;;;;;6.29;82.04;100290.88;5066161;28;20040;-65
2022/03/18 03:54:54;;;;;;;16.35;3.00;;;;;;;6.23;81.61;100288.09;5083253;28;20066;-65
2022/03/18 03:57:20;;;;;;;14.07;3.20;;;;;;;6.16;81.47;100292.31;5085075;28;20209;-65
2022/03/18 03:59:45;;;;;;;13.93;2.47;;;;;;;6.21;80.92;100293.28;5085038;28;20026;-65
2022/03/18 04:02:12;;;;;;;9.27;2.60;;;;;;;6.30;80.63;100303.13;5082916;28;20031;-65
2022/03/18 04:04:37;;;;;;;8.23;2.45;;;;;;;6.27;80.97;100303.91;5085197;28;20020;-65
2022/03/18 04:07:03;;;;;;;8.05;2.72;;;;;;;6.28;81.41;100310.03;5076343;28;20025;-65
2022/03/18 04:09:29;;;;;;;7.18;2.75;;;;;;;6.34;80.62;100305.84;5065644;28;20023;-65
2022/03/18 04:11:54;;;;;;;7.38;2.55;;;;;;;6.34;80.65;100320.63;5065252;28;20017;-65
2022/03/18 04:14:20;;;;;;;6.70;2.42;;;;;;;6.22;81.05;100312.50;5081528;28;20047;-65
2022/03/18 04:16:45;;;;;;;7.50;2.33;;;;;;;6.31;80.38;100315.34;5073264;28;20020;-65
2022/03/18 04:19:11;;;;;;;6.60;2.40;;;;;;;6.38;79.79;100317.25;5065170;28;20044;-65
2022/03/18 04:21:37;;;;;;;8.30;2.97;;;;;;;6.27;79.90;100313.50;5065157;28;20025;-65
2022/03/18 04:24:02;;;;;;;8.43;2.20;;;;;;;6.19;80.59;100312.41;5079107;28;20024;-65
2022/03/18 04:26:28;;;;;;;4.25;2.10;;;;;;;6.19;81.46;100315.03;5067226;28;20032;-65
2022/03/18 04:28:53;;;;;;;8.38;2.45;;;;;;;6.16;81.06;100322.78;5077272;28;20087;-65
2022/03/18 04:31:19;;;;;;;9.10;2.55;;;;;;;6.09;81.18;100328.72;5084376;28;20189;-65
2022/03/18 04:33:44;;;;;;;18.05;3.28;;;;;;;6.19;80.97;100331.59;5072758;28;20088;-65
2022/03/18 04:36:10;;;;;;;8.77;2.90;;;;;;;6.20;80.85;100319.41;5064886;28;20012;-65
2022/03/18 04:38:36;;;;;;;8.32;2.40;;;;;;;6.11;81.32;100321.81;5064831;28;20092;-65
2022/03/18 04:41:02;;;;;;;17.50;2.72;;;;;;;6.06;81.39;100323.41;5068996;28;20017;-65
2022/03/18 04:43:27;;;;;;;7.70;2.38;;;;;;;6.10;81.27;100331.38;5071418;28;20012;-65
2022/03/18 04:45:53;;;;;;;10.18;2.33;;;;;;;6.06;81.50;100334.75;5064604;28;20017;-65
2022/03/18 04:48:19;;;;;;;8.10;2.80;;;;;;;6.15;80.62;100334.09;5083932;28;20025;-65
2022/03/18 04:50:44;;;;;;;12.88;2.42;;;;;;;6.17;81.14;100335.03;5084039;28;20074;-65
2022/03/18 04:53:10;;;;;;;15.00;3.17;;;;;;;6.07;81.54;100335.63;5073751;28;20028;-65
2022/03/18 04:55:35;;;;;;;7.57;2.00;;;;;;;6.12;81.37;100344.47;5064517;28;20019;-65
2022/03/18 04:58:00;;;;;;;5.97;2.92;;;;;;;6.06;81.05;100339.09;5064500;28;20027;-65
2022/03/18 05:00:26;;;;;;;17.35;3.83;;;;;;;6.03;81.61;100339.03;5064437;28;20020;-65
2022/03/18 05:02:52;;;;;;;13.38;2.60;;;;;;;6.01;81.97;100345.97;5071999;28;20216;-65
2022/03/18 05:05:19;;;;;;;14.60;3.40;;;;;;;5.94;82.29;100344.00;5083498;28;20346;-65
2022/03/18 05:07:50;;;;;;;9.73;2.85;;;;;;;6.07;81.61;100356.53;5083780;28;20024;-65
2022/03/18 05:10:16;;;;;;;10.05;2.17;;;;;;;6.06;82.55;100354.78;5066024;28;20320;-65
2022/03/18 05:12:42;;;;;;;12.25;3.10;;;;;;;6.13;82.29;100347.13;5073086;28;20025;-65
2022/03/18 05:15:09;;;;;;;17.27;3.20;;;;;;;6.06;81.83;100360.91;5063343;28;20043;-65
2022/03/18 05:17:36;;;;;;;10.13;2.70;;;;;;;6.15;81.35;100352.41;5064407;28;20027;-65
2022/03/18 05:20:04;;;;;;;11.00;2.75;;;;;;;5.99;81.66;100358.09;5064056;28;20029;-65
2022/03/18 05:22:30;;;;;;;6.68;2.90;;;;;;;5.94;82.33;100364.91;5064291;28;20186;-65
2022/03/18 05:24:57;;;;;;;12.82;3.28;;;;;;;5.88;82.72;100359.50;5063987;28;20048;-65
2022/03/18 05:27:23;;;;;;;13.30;3.50;;;;;;;5.85;82.46;100351.59;5064160;28;20045;-65
2022/03/18 05:29:49;;;;;;;10.60;3.50;;;;;;;5.88;82.51;100360.41;5063928;28;20039;-65
2022/03/18 05:32:15;;;;;;;4.90;2.58;;;;;;;5.89;82.13;100358.69;5063929;28;20255;-65
2022/03/18 05:34:41;;;;;;;12.27;3.38;;;;;;;5.90;82.32;100370.91;5063841;28;20025;-65
2022/03/18 05:37:07;;;;;;;6.80;2.70;;;;;;;5.75;83.04;100373.06;5064671;28;20055;-65
2022/03/18 05:39:33;;;;;;;10.23;2.90;;;;;;;5.69;82.92;100372.88;5063898;28;20225;-65
2022/03/18 05:41:58;;;;;;;6.32;2.55;;;;;;;5.75;82.58;100373.06;5083394;28;20028;-65
2022/03/18 05:44:24;;;;;;;6.63;2.40;;;;;;;5.78;83.10;100386.22;5083346;28;20381;-65
2022/03/18 05:46:51;;;;;;;11.65;2.85;;;;;;;5.83;82.54;100376.81;5080389;28;20069;-65
2022/03/18 05:49:17;;;;;;;10.75;3.22;;;;;;;5.81;83.07;100379.38;5063740;28;20079;-65
2022/03/18 05:51:43;;;;;;;6.93;2.13;;;;;;;5.70;83.13;100380.78;5063851;28;20347;-65
2022/03/18 05:54:08;;;;;;;11.05;2.83;;;;;;;5.70;83.32;100380.78;5063738;28;20021;-65
2022/03/18 05:56:54;;;;;;;18.02;2.50;;;;;;;5.65;83.47;100387.63;5063838;28;20193;-65
2022/03/18 05:59:21;;;;;;;6.78;2.80;;;;;;;5.74;83.31;100394.81;5083508;28;20023;-65
2022/03/18 06:01:47;;;;;;;11.50;3.33;;;;;;;5.68;83.46;100397.25;5083168;28;20020;-65
2022/03/18 06:04:14;;;;;;;7.60;2.65;;;;;;;5.70;84.06;100395.59;5083664;28;20047;-65
2022/03/18 06:06:41;;;;;;;6.05;2.80;;;;;;;5.65;83.93;100402.38;5083562;28;20027;-65
2022/03/18 06:11:51;;;;;;;12.88;3.58;;;;;;;5.64;84.22;100405.84;5082138;28;20205;-65
2022/03/18 06:14:18;;;;;;;9.13;2.88;;;;;;;5.67;84.59;100405.94;5082780;28;20217;-65
2022/03/18 06:16:45;;;;;;;7.57;3.33;;;;;;;5.74;84.34;100413.09;5083048;28;20021;-65
2022/03/18 06:19:11;;;;;;;11.40;3.33;;;;;;;5.75;83.83;100409.63;5082786;28;20020;-65
2022/03/18 06:21:37;;;;;;;8.23;3.60;;;;;;;5.78;83.86;100422.78;5080202;28;20024;-65
2022/03/18 06:24:02;;;;;;;11.73;3.53;;;;;;;5.86;83.62;100413.50;5064612;28;20021;-65
2022/03/18 06:26:28;;;;;;;8.93;2.88;;;;;;;6.03;83.29;100417.44;5074683;28;20228;-65
2022/03/18 06:28:53;;;;;;;18.63;3.72;;;;;;;6.06;83.09;100412.28;5086797;28;20030;-65
2022/03/18 06:31:19;;;;;;;11.77;3.45;;;;;;;5.93;83.14;100418.03;5085403;28;20106;-65
2022/03/18 06:33:44;;;;;;;9.48;2.95;;;;;;;6.05;83.41;100428.81;5086425;28;20314;-65
2022/03/18 06:36:13;;;;;;;15.13;2.92;;;;;;;6.07;83.74;100429.72;5086867;28;20304;-65
2022/03/18 06:38:39;;;;;;;8.00;2.97;;;;;;;6.17;83.18;100437.88;5077884;28;20028;-65
2022/03/18 06:41:05;;;;;;;14.30;3.80;;;;;;;6.21;82.93;100446.69;5079114;28;20024;-65
2022/03/18 06:43:31;;;;;;;14.32;4.50;;;;;;;6.29;82.44;100453.88;5084996;28;20090;-65
2022/03/18 06:45:56;;;;;;;12.93;2.65;;;;;;;6.38;81.88;100458.47;5069289;28;20021;-65
2022/03/18 06:48:22;;;;;;;12.15;3.40;;;;;;;6.36;81.95;100454.94;5067210;28;20033;-65
2022/03/18 06:50:48;;;;;;;21.45;3.50;;;;;;;6.40;81.80;100462.03;5066002;28;20032;-65
2022/03/18 06:53:13;;;;;;;12.93;3.67;;;;;;;6.46;81.72;100462.19;5073589;28;20335;-65
2022/03/18 06:55:39;;;;;;;9.30;3.25;;;;;;;6.39;81.62;100460.22;5082671;28;20076;-65
2022/03/18 06:58:04;;;;;;;19.83;3.42;;;;;;;6.49;81.42;100462.25;5080577;28;20096;-65
2022/03/18 07:00:30;;;;;;;12.90;3.80;;;;;;;6.39;82.32;100462.84;5082496;28;20304;-65
2022/03/18 07:02:55;;;;;;;13.00;3.47;;;;;;;6.40;82.10;100460.28;5069500;28;20300;-65
2022/03/18 07:05:21;;;;;;;12.82;3.50;;;;;;;6.37;82.89;100456.72;5074793;28;20016;-65
2022/03/18 07:07:48;;;;;;;12.35;3.28;;;;;;;6.49;82.04;100462.25;5089557;28;20020;-65
2022/03/18 07:10:13;;;;;;;29.70;4.40;;;;;;;6.46;82.50;100472.66;5085018;28;20027;-65
2022/03/18 07:12:39;;;;;;;13.73;2.92;;;;;;;6.54;82.81;100476.31;5069833;28;20024;-65
2022/03/18 07:15:06;;;;;;;10.70;3.30;;;;;;;6.49;82.38;100470.97;5069682;28;20087;-65
2022/03/18 07:20:15;;;;;;;18.38;4.22;;;;;;;6.55;81.83;100483.31;5073237;28;20020;-65
2022/03/18 07:22:41;;;;;;;9.50;3.38;;;;;;;6.61;82.36;100478.25;5076065;28;20016;-65
2022/03/18 07:25:07;;;;;;;15.07;3.85;;;;;;;6.66;81.29;100481.88;5074390;28;20017;-65
2022/03/18 07:27:32;;;;;;;13.70;3.90;;;;;;;6.63;81.72;100481.81;5074556;28;20070;-65
2022/03/18 07:29:58;;;;;;;11.07;3.90;;;;;;;6.72;81.01;100488.13;5083174;28;20048;-65
2022/03/18 07:32:23;;;;;;;8.93;3.47;;;;;;;6.92;81.56;100479.91;5072540;28;20036;-65
2022/03/18 07:34:49;;;;;;;14.30;4.50;;;;;;;6.84;80.39;100482.34;5065148;28;20362;-65
2022/03/18 07:37:14;;;;;;;12.90;4.10;;;;;;;6.98;80.88;100486.19;5072513;28;20096;-65
2022/03/18 07:39:40;;;;;;;14.98;3.72;;;;;;;7.09;79.90;100482.06;5078368;28;20350;-65
2022/03/18 07:42:06;;;;;;;8.63;3.42;;;;;;;7.06;80.90;100479.41;5081224;28;20020;-65
2022/03/18 07:44:31;;;;;;;10.25;4.50;;;;;;;7.18;79.87;100479.69;5075513;28;20020;-65
2022/03/18 07:46:57;;;;;;;8.25;3.40;;;;;;;7.33;79.28;100484.38;5064681;28;20044;-65
2022/03/18 07:49:22;;;;;;;11.15;4.35;;;;;;;7.20;79.16;100484.94;5078242;28;20177;-65
2022/03/18 07:51:48;;;;;;;14.15;4.32;;;;;;;7.16;79.69;100476.16;5064761;28;20240;-64
2022/03/18 07:54:13;;;;;;;7.90;3.90;;;;;;;7.20;80.37;100482.31;5065875;28;20021;-66
2022/03/18 07:56:39;;;;;;;12.93;3.60;;;;;;;7.24;79.97;100479.81;5067392;28;20016;-66
2022/03/18 07:59:04;;;;;;;12.50;4.70;;;;;;;7.17;79.55;100483.16;5065810;28;20020;-66
2022/03/18 08:01:29;;;;;;;22.10;5.38;;;;;;;7.14;80.09;100477.84;5075806;28;20020;-66
2022/03/18 08:03:55;;;;;;;14.27;3.97;;;;;;;7.32;78.98;100494.00;5076956;28;20320;-66
2022/03/18 08:06:21;;;;;;;14.05;3.95;;;;;;;7.30;79.63;100487.81;5080874;28;20372;-66
2022/03/18 08:08:46;;;;;;;9.27;4.35;;;;;;;7.52;79.60;100482.22;5079278;28;20317;-66
2022/03/18 08:11:13;;;;;;;13.90;4.35;;;;;;;7.44;79.25;100478.53;5065263;28;20021;-66
2022/03/18 08:13:39;;;;;;;14.93;5.18;;;;;;;7.58;79.05;100477.13;5065152;28;20045;-66
2022/03/18 08:16:05;;;;;;;13.13;4.30;;;;;;;7.71;79.01;100484.38;5065497;28;20044;-66
2022/03/18 08:18:30;;;;;;;20.05;5.25;;;;;;;7.87;77.63;100480.34;5065489;28;20217;-66
2022/03/18 08:20:56;;;;;;;17.40;4.72;;;;;;;8.05;77.54;100492.09;5065198;28;20025;-66
2022/03/18 08:23:23;;;;;;;14.50;4.50;;;;;;;8.12;76.76;100494.00;5065118;28;20035;-66
2022/03/18 08:25:48;;;;;;;10.85;3.75;;;;;;;8.11;77.74;100497.47;5064923;28;20029;-66
2022/03/18 08:28:14;;;;;;;13.82;4.65;;;;;;;8.11;76.68;100497.47;5065001;28;20029;-66
2022/03/18 08:30:40;;;;;;;16.95;4.88;;;;;;;8.12;76.54;100499.22;5064979;28;20139;-66
2022/03/18 08:33:05;;;;;;;16.45;4.55;;;;;;;8.11;76.67;100497.47;5064891;28;20031;-66
2022/03/18 08:35:31;;;;;;;11.75;4.45;;;;;;;8.29;76.92;100508.34;5064812;28;20052;-66
2022/03/18 08:37:56;;;;;;;9.60;4.35;;;;;;;8.31;76.32;100506.66;5064834;28;20071;-66
2022/03/18 08:40:27;;;;;;;11.43;4.68;;;;;;;8.62;75.90;100503.75;5064991;28;20024;-66
2022/03/18 08:42:54;;;;;;;12.60;5.22;;;;;;;8.65;76.35;100509.03;5064743;28;20032;-66
2022/03/18 08:45:19;;;;;;;10.05;4.43;;;;;;;8.50;76.98;100508.75;5064594;28;20059;-66
2022/03/18 08:47:45;;;;;;;13.63;4.78;;;;;;;8.70;76.73;100502.13;5064889;28;20020;-66
2022/03/18 08:50:12;;;;;;;11.85;4.50;;;;;;;8.82;76.27;100512.84;5064525;28;20025;-66
2022/03/18 08:52:37;;;;;;;12.35;4.28;;;;;;;8.87;73.92;100504.16;5064535;28;20024;-66
2022/03/18 08:55:04;;;;;;;11.20;4.40;;;;;;;8.95;74.30;100508.66;5064474;28;20088;-66
2022/03/18 08:57:33;;;;;;;15.73;5.68;;;;;;;8.76;73.83;100507.47;5064404;28;20028;-66
2022/03/18 08:59:59;;;;;;;12.75;5.10;;;;;;;8.94;74.67;100513.91;5064418;28;20382;-66
2022/03/18 09:02:24;;;;;;;12.95;5.53;;;;;;;9.10;74.54;100518.53;5064630;28;20020;-66
2022/03/18 09:04:51;;;;;;;16.48;5.45;;;;;;;9.15;72.78;100515.16;5064584;28;20313;-66
2022/03/18 09:07:17;;;;;;;12.13;5.43;;;;;;;9.41;74.08;100510.28;5064188;28;20127;-66
2022/03/18 09:09:42;;;;;;;15.40;5.95;;;;;;;9.30;71.65;100517.16;5064262;28;20034;-66
2022/03/18 09:12:08;;;;;;;12.80;5.15;;;;;;;9.43;71.61;100503.31;5064181;28;20024;-66
2022/03/18 09:14:34;;;;;;;26.75;6.82;;;;;;;9.56;73.03;100510.53;5063895;28;20107;-66
2022/03/18 09:16:59;;;;;;;15.57;5.80;;;;;;;9.58;72.50;100519.28;5064159;28;20025;-66
2022/03/18 09:19:25;;;;;;;17.00;6.72;;;;;;;9.40;72.20;100529.56;5064111;28;20025;-66
2022/03/18 09:21:51;;;;;;;18.33;7.07;;;;;;;9.50;72.66;100521.84;5064019;28;20049;-66
2022/03/18 09:24:17;;;;;;;14.82;5.85;;;;;;;9.68;72.17;100515.97;5064040;28;20089;-66
2022/03/18 09:26:43;;;;;;;17.00;6.45;;;;;;;9.66;72.84;100518.56;5063936;28;20029;-66
2022/03/18 09:29:08;;;;;;;14.23;6.20;;;;;;;10.04;71.20;100517.34;5064035;28;20025;-66
2022/03/18 09:31:34;;;;;;;13.00;5.05;;;;;;;10.10;69.66;100525.31;5063941;28;20247;-66
2022/03/18 09:33:59;;;;;;;18.20;6.75;;;;;;;9.82;71.65;100530.19;5063932;28;20324;-66
2022/03/18 09:36:25;;;;;;;19.75;7.18;;;;;;;9.86;72.03;100529.34;5063879;28;20028;-66
2022/03/18 09:38:50;;;;;;;18.67;7.63;;;;;;;9.81;71.05;100533.69;5063857;28;20103;-66
2022/03/18 09:41:17;;;;;;;20.95;6.72;;;;;;;10.18;71.51;100525.41;5063814;28;20068;-66
2022/03/18 09:43:43;;;;;;;22.23;6.95;;;;;;;10.14;71.67;100552.56;5063814;28;20070;-66
2022/03/18 09:46:13;;;;;;;17.15;7.38;;;;;;;10.32;70.73;100534.38;5063687;28;20032;-66
2022/03/18 09:48:39;;;;;;;18.60;6.45;;;;;;;10.29;70.28;100534.34;5063691;28;20040;-66
2022/03/18 09:51:05;;;;;;;13.52;6.75;;;;;;;10.17;70.76;100550.88;5063730;28;20029;-66
2022/03/18 09:53:34;;;;;;;25.27;8.10;;;;;;;9.85;71.07;100531.13;5063991;28;20070;-66
2022/03/18 09:56:00;;;;;;;17.52;6.97;;;;;;;9.82;71.93;100528.44;5063698;28;20313;-66
2022/03/18 09:58:26;;;;;;;21.20;8.23;;;;;;;10.15;71.13;100530.63;5063694;28;20025;-66
2022/03/18 10:00:52;;;;;;;21.05;8.05;;;;;;;10.38;70.24;100534.44;5064925;28;20380;-66
2022/03/18 10:03:21;;;;;;;20.33;7.55;;;;;;;10.27;69.89;100530.78;5067979;28;20043;-66
2022/03/18 10:05:59;;;;;;;16.38;6.65;;;;;;;10.29;69.93;100524.66;5067642;28;20025;-66
2022/03/18 10:08:25;;;;;;;15.73;6.95;;;;;;;10.25;71.75;100543.06;5067952;28;20235;-66
2022/03/18 10:10:51;;;;;;;19.52;6.75;;;;;;;10.30;70.80;100525.56;5067557;28;20079;-66
2022/03/18 10:13:18;;;;;;;15.65;6.97;;;;;;;10.52;70.08;100522.31;5067688;28;20021;-66
2022/03/18 10:15:44;;;;;;;18.55;6.65;;;;;;;10.59;69.39;100521.50;5067516;28;20021;-66
2022/03/18 10:18:14;;;;;;;18.13;5.93;;;;;;;10.73;69.63;100527.81;5067494;28;20236;-66
2022/03/18 10:20:41;;;;;;;17.60;6.85;;;;;;;10.57;70.11;100534.66;5067449;28;20070;-66
2022/03/18 10:23:15;;;;;;;13.13;6.45;;;;;;;10.21;70.61;100541.25;5067499;28;20032;-66
2022/03/18 10:25:50;;;;;;;17.20;6.45;;;;;;;10.46;70.60;100531.03;5067318;28;20063;-66
2022/03/18 10:28:37;;;;;;;19.63;7.13;;;;;;;10.43;70.48;100538.00;5067368;28;20025;-66
2022/03/18 10:31:15;;;;;;;20.60;7.55;;;;;;;10.43;70.32;100527.47;5066965;28;20028;-66
2022/03/18 10:37:04;;;;;;;21.73;7.53;;;;;;;10.16;69.21;100537.69;5067228;28;20052;-66
2022/03/18 10:39:30;;;;;;;20.10;7.65;;;;;;;10.67;69.25;100533.00;5067117;28;20044;-66
2022/03/18 10:42:00;;;;;;;22.63;8.07;;;;;;;10.89;68.76;100509.50;5066973;28;20100;-66
2022/03/18 10:44:34;;;;;;;17.92;7.63;;;;;;;10.71;68.13;100519.91;5066984;28;20029;-66
2022/03/18 10:46:59;;;;;;;17.75;8.55;;;;;;;10.95;68.31;100535.06;5066916;28;20025;-66
2022/03/18 10:49:25;;;;;;;19.20;8.57;;;;;;;11.15;67.63;100532.56;5066806;28;20115;-66
2022/03/18 10:51:51;;;;;;;20.50;7.82;;;;;;;11.01;66.17;100534.22;5073357;28;20020;-66
2022/03/18 10:54:24;;;;;;;17.90;8.73;;;;;;;11.42;68.43;100533.66;5091739;28;20043;-66
2022/03/18 10:56:59;;;;;;;16.45;7.63;;;;;;;11.53;65.73;100536.41;5103780;28;20109;-66
2022/03/18 10:59:27;;;;;;;19.52;8.98;;;;;;;11.60;65.09;100533.81;5072521;28;20082;-66
2022/03/18 11:01:56;;;;;;;23.50;8.50;;;;;;;11.57;66.94;100522.34;5075287;28;20122;-66
2022/03/18 11:04:23;;;;;;;23.40;10.40;;;;;;;11.61;64.82;100530.28;5078769;28;20029;-66
2022/03/18 11:12:28;;;;;;;26.38;8.98;;;;;;;12.27;64.33;100525.41;5064297;28;20220;-66
2022/03/18 11:14:56;;;;;;;26.88;10.02;;;;;;;12.22;64.18;100516.56;5081754;28;20043;-66
2022/03/18 11:17:23;;;;;;;22.58;10.07;;;;;;;12.73;63.93;100522.03;5084960;28;20017;-66
2022/03/18 11:19:51;;;;;;;30.77;11.75;;;;;;;12.97;62.00;100534.38;5085380;28;20016;-66
2022/03/18 11:22:17;;;;;;;30.05;13.07;;;;;;;12.80;61.55;100534.38;5077601;28;20347;-66
2022/03/18 11:24:45;;;;;;;28.45;13.40;;;;;;;12.67;61.18;100534.34;5075316;28;20024;-66
2022/03/18 11:27:12;;;;;;;33.42;13.05;;;;;;;12.33;61.04;100522.78;5083097;28;20240;-66
2022/03/18 11:29:38;;;;;;;26.20;12.00;;;;;;;12.65;61.12;100517.59;5074326;28;20021;-67
2022/03/18 11:32:09;;;;;;;26.65;12.60;;;;;;;12.98;61.86;100507.94;5073268;28;20025;-67
2022/03/18 11:34:44;;;;;;;26.13;11.85;;;;;;;13.17;60.43;100513.28;5066518;28;20307;-67
2022/03/18 11:37:09;;;;;;;23.60;10.57;;;;;;;13.37;61.19;100507.09;5082808;28;20220;-67
2022/03/18 11:39:34;;;;;;;22.33;10.57;;;;;;;13.84;60.45;100509.66;5084287;28;20024;-67
2022/03/18 11:42:07;;;;;;;23.35;10.80;;;;;;;13.87;58.94;100507.00;5072562;28;20059;-67
2022/03/18 11:44:50;;;;;;;24.33;10.13;;;;;;;13.36;59.91;100504.47;5066063;28;20435;-67